createdAt,value
2023-03-19T00:04:02.917Z,19.44
2023-03-19T00:09:04.950Z,19.46
2023-03-19T00:14:07.001Z,19.45
2023-03-19T00:19:10.244Z,19.44
2023-03-19T00:24:12.789Z,19.46
2023-03-19T00:29:15.092Z,19.46
2023-03-19T00:34:19.993Z,19.45
2023-03-19T00:39:22.468Z,19.42
2023-03-19T00:44:24.389Z,19.44
2023-03-19T00:49:26.252Z,19.47
2023-03-19T00:54:28.317Z,19.49
2023-03-19T00:59:30.229Z,19.46
2023-03-19T01:04:32.277Z,19.46
2023-03-19T01:09:36.038Z,19.46
2023-03-19T01:14:37.792Z,19.45
2023-03-19T01:19:39.519Z,19.48
2023-03-19T01:24:41.817Z,19.44
2023-03-19T01:29:43.751Z,19.46
2023-03-19T01:34:45.618Z,19.49
2023-03-19T01:39:47.567Z,19.44
2023-03-19T01:44:49.565Z,19.48
2023-03-19T01:49:55.676Z,19.46
2023-03-19T01:54:59.463Z,19.48
2023-03-19T02:00:04.262Z,19.44
2023-03-19T02:05:11.018Z,19.45
2023-03-19T02:10:16.175Z,19.46
2023-03-19T02:15:19.096Z,19.44
2023-03-19T02:20:47.452Z,19.40
2023-03-19T02:25:55.232Z,19.44
2023-03-19T02:30:57.128Z,19.46
2023-03-19T02:35:59.482Z,19.44
2023-03-19T02:41:04.962Z,19.51
2023-03-19T02:46:11.329Z,19.43
2023-03-19T02:51:13.909Z,19.48
2023-03-19T02:56:16.056Z,19.49
2023-03-19T03:01:17.968Z,19.49
2023-03-19T03:06:20.156Z,19.45
2023-03-19T03:11:22.993Z,19.49
2023-03-19T03:16:26.074Z,19.48
2023-03-19T03:21:27.880Z,19.49
2023-03-19T03:26:29.948Z,19.48
2023-03-19T03:31:32.185Z,19.50
2023-03-19T03:36:34.000Z,19.47
2023-03-19T03:41:35.975Z,19.47
2023-03-19T03:46:38.191Z,19.46
2023-03-19T03:51:40.219Z,19.49
2023-03-19T03:56:42.566Z,19.50
2023-03-19T04:01:44.775Z,19.50
2023-03-19T04:06:47.228Z,19.53
2023-03-19T04:11:51.477Z,19.49
2023-03-19T04:16:53.914Z,19.51
2023-03-19T04:21:55.844Z,19.50
2023-03-19T04:26:57.640Z,19.46
2023-03-19T04:31:59.716Z,19.48
2023-03-19T04:37:01.854Z,19.48
2023-03-19T04:42:04.702Z,19.47
2023-03-19T04:47:06.823Z,19.51
2023-03-19T04:52:09.739Z,19.49
2023-03-19T04:57:11.924Z,19.49
2023-03-19T05:02:13.818Z,19.48
2023-03-19T05:07:15.782Z,19.50
2023-03-19T05:12:17.765Z,19.52
2023-03-19T05:17:19.750Z,19.52
2023-03-19T05:22:21.617Z,19.54
2023-03-19T05:27:23.622Z,19.51
2023-03-19T05:32:25.806Z,19.52
2023-03-19T05:37:27.862Z,19.52
2023-03-19T05:42:29.961Z,19.53
2023-03-19T05:47:32.357Z,19.52
2023-03-19T05:52:34.486Z,19.53
2023-03-19T05:57:36.621Z,19.50
2023-03-19T06:02:39.172Z,19.50
2023-03-19T06:07:41.170Z,19.51
2023-03-19T06:12:43.122Z,19.49
2023-03-19T06:17:45.004Z,19.51
2023-03-19T06:22:47.053Z,19.52
2023-03-19T06:27:48.822Z,19.48
2023-03-19T06:32:51.065Z,19.49
2023-03-19T06:37:53.103Z,19.50
2023-03-19T06:42:54.967Z,19.50
2023-03-19T06:47:57.420Z,19.50
2023-03-19T06:52:59.438Z,19.46
2023-03-19T06:58:01.281Z,19.49
2023-03-19T07:03:03.174Z,19.51
2023-03-19T07:08:07.751Z,19.54
2023-03-19T07:13:09.674Z,19.47
2023-03-19T07:18:11.790Z,19.53
2023-03-19T07:23:13.768Z,19.48
2023-03-19T07:28:15.871Z,19.49
2023-03-19T07:33:17.871Z,19.52
2023-03-19T07:38:20.175Z,19.51
2023-03-19T07:43:21.999Z,19.52
2023-03-19T07:48:24.196Z,19.54
2023-03-19T07:53:26.276Z,19.52
2023-03-19T07:58:29.057Z,19.50
2023-03-19T08:03:34.697Z,19.49
2023-03-19T08:08:36.988Z,19.48
2023-03-19T08:13:39.598Z,19.49
2023-03-19T08:18:41.590Z,19.52
2023-03-19T08:23:43.366Z,19.48
2023-03-19T08:28:45.297Z,19.49
2023-03-19T08:33:47.168Z,19.64
2023-03-19T08:38:48.956Z,19.63
2023-03-19T08:43:51.356Z,19.64
2023-03-19T08:48:53.566Z,19.73
2023-03-19T08:53:55.238Z,19.77
2023-03-19T08:58:57.705Z,19.80
2023-03-19T09:03:59.476Z,19.86
2023-03-19T09:09:01.828Z,19.85
2023-03-19T09:14:03.979Z,19.84
2023-03-19T09:19:05.809Z,19.86
2023-03-19T09:24:07.808Z,19.86
2023-03-19T09:29:09.780Z,19.90
2023-03-19T09:34:11.762Z,19.79
2023-03-19T09:39:13.621Z,19.74
2023-03-19T09:44:31.305Z,19.72
2023-03-19T09:49:39.281Z,19.81
2023-03-19T09:54:48.559Z,19.77
2023-03-19T09:59:50.410Z,19.78
2023-03-19T10:05:11.659Z,19.82
2023-03-19T10:10:30.639Z,19.85
2023-03-19T10:15:33.632Z,19.79
2023-03-19T10:20:59.509Z,19.72
2023-03-19T10:26:05.061Z,19.76
2023-03-19T10:31:47.719Z,19.69
2023-03-19T10:36:49.547Z,19.75
2023-03-19T10:42:05.772Z,19.77
2023-03-19T10:47:13.562Z,19.71
2023-03-19T10:52:20.033Z,19.70
2023-03-19T10:57:33.837Z,19.70
2023-03-19T11:02:36.461Z,19.71
2023-03-19T11:07:38.795Z,19.71
2023-03-19T11:12:40.830Z,19.78
2023-03-19T11:17:49.465Z,19.72
2023-03-19T11:22:53.011Z,19.73
2023-03-19T11:28:04.152Z,19.70
2023-03-19T11:33:16.034Z,19.68
2023-03-19T11:38:34.208Z,19.64
2023-03-19T11:43:45.667Z,19.73
2023-03-19T11:49:06.293Z,19.70
2023-03-19T11:54:57.401Z,19.68
2023-03-19T12:00:14.053Z,19.70
2023-03-19T12:05:24.812Z,19.73
2023-03-19T12:10:35.743Z,19.76
2023-03-19T12:16:02.165Z,19.74
2023-03-19T12:21:16.155Z,19.74
2023-03-19T12:26:32.717Z,19.80
2023-03-19T12:32:03.001Z,19.76
2023-03-19T12:37:20.177Z,19.78
2023-03-19T12:42:22.715Z,19.78
2023-03-19T12:47:34.614Z,19.73
2023-03-19T12:52:39.630Z,19.74
2023-03-19T12:57:48.186Z,19.76
2023-03-19T13:03:00.595Z,19.76
2023-03-19T13:08:27.934Z,19.74
2023-03-19T13:13:53.751Z,19.76
2023-03-19T13:19:21.116Z,19.77
2023-03-19T13:24:29.360Z,19.75
2023-03-19T13:29:32.846Z,19.79
2023-03-19T13:34:37.403Z,19.85
2023-03-19T13:39:40.068Z,19.81
2023-03-19T13:45:25.229Z,19.75
2023-03-19T13:50:30.394Z,19.80
2023-03-19T13:55:54.050Z,19.74
2023-03-19T14:00:59.519Z,19.74
2023-03-19T14:06:02.110Z,19.73
2023-03-19T14:11:06.352Z,19.72
2023-03-19T14:16:17.018Z,19.75
2023-03-19T14:21:46.787Z,19.73
2023-03-19T14:26:50.280Z,19.75
2023-03-19T14:31:55.945Z,19.70
2023-03-19T14:37:20.249Z,19.67
2023-03-19T14:42:28.078Z,19.77
2023-03-19T14:47:48.705Z,19.74
2023-03-19T14:53:00.110Z,19.75
2023-03-19T14:58:02.494Z,19.74
2023-03-19T15:03:04.475Z,19.71
2023-03-19T15:08:13.159Z,19.75
2023-03-19T15:13:48.726Z,19.76
2023-03-19T15:18:51.014Z,19.74
2023-03-19T15:23:53.268Z,19.75
2023-03-19T15:28:55.424Z,19.75
2023-03-19T15:33:58.015Z,19.79
2023-03-19T15:39:05.104Z,19.78
2023-03-19T15:44:12.414Z,19.60
2023-03-19T15:49:23.263Z,19.67
2023-03-19T15:54:26.760Z,19.61
2023-03-19T15:59:32.661Z,19.46
2023-03-19T16:04:55.972Z,19.50
2023-03-19T16:09:57.556Z,19.64
2023-03-19T16:14:59.687Z,20.02
2023-03-19T16:20:04.003Z,19.90
2023-03-19T16:25:17.073Z,19.86
2023-03-19T16:30:25.939Z,19.87
2023-03-19T16:35:30.640Z,19.87
2023-03-19T16:40:41.555Z,19.85
2023-03-19T16:45:44.189Z,19.84
2023-03-19T16:50:47.799Z,19.85
2023-03-19T16:55:50.424Z,19.82
2023-03-19T17:00:52.731Z,19.82
2023-03-19T17:05:54.822Z,19.80
2023-03-19T17:10:58.121Z,19.81
2023-03-19T17:16:03.561Z,19.83
2023-03-19T17:21:11.214Z,19.84
2023-03-19T17:26:28.212Z,19.84
2023-03-19T17:31:32.471Z,19.87
2023-03-19T17:36:34.622Z,19.85
2023-03-19T17:41:37.074Z,19.83
2023-03-19T17:46:42.781Z,19.86
2023-03-19T17:51:44.830Z,19.84
2023-03-19T17:56:47.045Z,19.84
2023-03-19T18:01:49.296Z,19.82
2023-03-19T18:06:54.774Z,19.81
2023-03-19T18:11:57.005Z,19.81
2023-03-19T18:16:59.127Z,19.80
2023-03-19T18:22:01.311Z,19.79
2023-03-19T18:27:03.513Z,19.81
2023-03-19T18:32:11.685Z,19.79
2023-03-19T18:37:18.228Z,19.80
2023-03-19T18:42:20.241Z,19.85
2023-03-19T18:47:22.442Z,19.76
2023-03-19T18:52:24.278Z,19.76
2023-03-19T18:57:26.326Z,19.78
2023-03-19T19:02:32.714Z,19.79
2023-03-19T19:07:34.691Z,19.82
2023-03-19T19:12:39.685Z,19.80
2023-03-19T19:17:42.464Z,19.80
2023-03-19T19:22:45.045Z,19.78
2023-03-19T19:27:51.288Z,19.81
2023-03-19T19:32:53.250Z,19.77
2023-03-19T19:37:55.864Z,19.80
2023-03-19T19:42:58.457Z,19.78
2023-03-19T19:48:00.558Z,19.78
2023-03-19T19:53:02.510Z,19.79
2023-03-19T19:58:07.476Z,19.80
2023-03-19T20:03:20.981Z,19.80
2023-03-19T20:08:23.539Z,19.80
2023-03-19T20:13:29.531Z,19.82
2023-03-19T20:18:35.957Z,19.81
2023-03-19T20:23:37.946Z,19.81
2023-03-19T20:28:40.247Z,19.79
2023-03-19T20:33:42.561Z,19.85
2023-03-19T20:38:44.643Z,19.80
2023-03-19T20:43:46.910Z,19.81
2023-03-19T20:48:49.278Z,19.80
2023-03-19T20:53:53.119Z,19.82
2023-03-19T20:58:55.234Z,19.81
2023-03-19T21:03:57.542Z,19.86
2023-03-19T21:09:02.184Z,19.83
2023-03-19T21:14:04.943Z,19.81
2023-03-19T21:19:06.833Z,19.79
2023-03-19T21:24:16.445Z,19.83
2023-03-19T21:29:28.976Z,19.83
2023-03-19T21:34:30.836Z,19.83
2023-03-19T21:39:32.728Z,19.86
2023-03-19T21:44:34.663Z,19.97
2023-03-19T21:49:36.794Z,20.03
2023-03-19T21:54:38.970Z,20.04
2023-03-19T21:59:41.766Z,19.95
2023-03-19T22:04:43.592Z,19.89
2023-03-19T22:09:45.485Z,19.95
2023-03-19T22:14:47.665Z,19.90
2023-03-19T22:19:49.538Z,19.87
2023-03-19T22:24:53.231Z,19.91
2023-03-19T22:29:55.306Z,19.88
2023-03-19T22:34:57.263Z,19.89
2023-03-19T22:39:59.202Z,19.87
2023-03-19T22:45:01.248Z,19.85
2023-03-19T22:50:05.559Z,19.86
2023-03-19T22:55:07.763Z,19.87
2023-03-19T23:00:19.625Z,19.85
2023-03-19T23:05:27.150Z,19.87
2023-03-19T23:10:32.562Z,19.81
2023-03-19T23:15:34.940Z,19.84
2023-03-19T23:20:37.254Z,19.83
2023-03-19T23:25:39.540Z,19.87
2023-03-19T23:30:41.735Z,19.81
2023-03-19T23:35:43.957Z,19.82
2023-03-19T23:40:46.942Z,19.83
2023-03-19T23:45:50.824Z,19.86
2023-03-19T23:50:53.113Z,19.81
2023-03-19T23:56:01.229Z,19.84
